Bostonia, California
Current Conditions -  °F | °C
As of 6:35 AM on Saturday 25 Oct 2014 (Local Time) from KSEE Reporting Station
Few Clouds Few Clouds  
Wind Chill: 59°   Ceiling: Unl
Heat Index: 59°   Visibility: 10mi
Dew Point: 45°   Wind: 0mph
Humidity: 59%   Direction: NA
Pressure: 30.02"   Gusts: NA
Location:  32.81°N, 116.93°W
Report Text: KSEE 251335Z AUTO 00000KT 10SM FEW095 15/07 A3002 RMK AO2
Loading
Personal Weather Stations






























Interactive Weather Map
Tropical Storm Tracking
New forecast layout! Learn more

10-Day Weather Forecast

Advertisements
Track Severe Weather on mobile